Time;durP1;ratioP1;P1;durP2;ratioP2;P2;SDS_P1;SDS_P2;PMS_P1;PMS_P2;Temp;Humidity;BMP_temperature;BMP_pressure;BME280_temperature;BME280_humidity;BME280_pressure;Samples;Min_cycle;Max_cycle;Signal;HPM_P1;HPM_P2
2023/08/09 00:01:00;;;;;;;7.55;3.92;;;;;;;;;;5052430;28;20048;-71
2023/08/09 00:03:26;;;;;;;7.13;3.22;;;;;;;;;;5053439;28;20040;-71
2023/08/09 00:05:52;;;;;;;7.07;3.35;;;;;;;;;;5054020;28;20044;-71
2023/08/09 00:08:18;;;;;;;14.63;4.78;;;;;;;;;;5052896;28;20396;-72
2023/08/09 00:10:45;;;;;;;7.80;4.40;;;;;;;;;;5053654;28;20396;-71
2023/08/09 00:13:11;;;;;;;10.25;4.75;;;;;;;;;;5052626;28;20045;-71
2023/08/09 00:15:38;;;;;;;9.32;5.30;;;;;;;;;;5052525;28;20048;-71
2023/08/09 00:18:05;;;;;;;9.95;5.05;;;;;;;;;;5035755;28;20053;-71
2023/08/09 00:20:32;;;;;;;11.90;6.15;;;;;;;;;;5052629;28;20507;-71
2023/08/09 00:22:58;;;;;;;11.85;5.53;;;;;;;;;;5052225;28;20044;-71
2023/08/09 00:25:24;;;;;;;10.70;5.10;;;;;;;;;;5053810;28;20048;-71
2023/08/09 00:27:50;;;;;;;11.10;5.57;;;;;;;;;;5035540;28;20052;-71
2023/08/09 00:30:17;;;;;;;13.10;5.70;;;;;;;;;;5052630;28;20455;-71
2023/08/09 00:32:43;;;;;;;8.10;5.18;;;;;;;;;;5051829;28;20040;-72
2023/08/09 00:35:09;;;;;;;11.68;5.05;;;;;;;;;;5053259;28;20040;-71
2023/08/09 00:37:35;;;;;;;11.02;5.10;;;;;;;;;;5035654;28;20045;-71
2023/08/09 00:40:07;;;;;;;8.85;5.38;;;;;;;;;;5051974;28;20048;-71
2023/08/09 00:42:33;;;;;;;8.57;4.25;;;;;;;;;;5051145;28;20047;-72
2023/08/09 00:44:59;;;;;;;8.82;4.88;;;;;;;;;;5035031;28;20041;-72
2023/08/09 00:47:26;;;;;;;9.30;4.97;;;;;;;;;;5035346;28;20094;-71
2023/08/09 00:49:52;;;;;;;8.50;4.97;;;;;;;;;;5052931;28;20113;-71
2023/08/09 00:52:19;;;;;;;10.20;5.28;;;;;;;;;;5035219;28;20033;-72
2023/08/09 00:54:48;;;;;;;9.80;4.90;;;;;;;;;;5051839;28;20068;-71
2023/08/09 00:57:14;;;;;;;9.10;4.20;;;;;;;;;;5052587;28;20452;-72
2023/08/09 00:59:41;;;;;;;8.95;4.70;;;;;;;;;;5085234;28;20068;-72
2023/08/09 01:02:10;;;;;;;7.07;3.30;;;;;;;;;;5051529;28;20124;-71
2023/08/09 01:04:36;;;;;;;10.40;5.85;;;;;;;;;;5034572;28;20043;-71
2023/08/09 01:07:13;;;;;;;9.35;4.72;;;;;;;;;;5051475;28;20036;-71
2023/08/09 01:09:45;;;;;;;5.78;3.85;;;;;;;;;;5051804;28;20036;-71
2023/08/09 01:12:15;;;;;;;8.00;4.53;;;;;;;;;;5051541;28;20127;-72
2023/08/09 01:14:42;;;;;;;6.45;4.07;;;;;;;;;;5034929;28;20041;-71
2023/08/09 01:17:15;;;;;;;8.82;4.30;;;;;;;;;;5052439;28;20053;-71
2023/08/09 01:19:52;;;;;;;7.80;4.70;;;;;;;;;;5051663;28;20365;-71
2023/08/09 01:22:21;;;;;;;12.23;4.80;;;;;;;;;;5039443;28;20038;-71
2023/08/09 01:24:48;;;;;;;9.95;5.38;;;;;;;;;;5049630;28;20051;-71
2023/08/09 01:27:14;;;;;;;11.68;4.93;;;;;;;;;;5051403;28;20048;-71
2023/08/09 01:29:41;;;;;;;10.70;5.53;;;;;;;;;;5051197;28;20048;-71
2023/08/09 01:32:07;;;;;;;11.85;6.03;;;;;;;;;;5051056;28;20154;-71
2023/08/09 01:34:35;;;;;;;9.93;5.45;;;;;;;;;;5051065;28;20385;-71
2023/08/09 01:37:10;;;;;;;9.93;5.10;;;;;;;;;;5051271;28;20049;-72
2023/08/09 01:39:36;;;;;;;11.48;5.68;;;;;;;;;;5051381;28;20049;-71
2023/08/09 01:42:03;;;;;;;16.45;5.88;;;;;;;;;;5051597;28;20037;-71
2023/08/09 01:44:29;;;;;;;11.13;6.05;;;;;;;;;;5051662;28;20047;-71
2023/08/09 01:46:56;;;;;;;10.05;5.68;;;;;;;;;;5034340;28;20365;-72
2023/08/09 01:49:23;;;;;;;11.73;5.28;;;;;;;;;;5034620;28;20044;-71
2023/08/09 01:51:51;;;;;;;8.00;4.80;;;;;;;;;;5051380;28;20041;-71
2023/08/09 01:54:17;;;;;;;11.52;5.60;;;;;;;;;;5056659;28;20122;-71
2023/08/09 01:56:43;;;;;;;11.07;5.53;;;;;;;;;;5053999;28;20482;-71
2023/08/09 01:59:09;;;;;;;10.82;5.10;;;;;;;;;;5054976;28;20065;-71
2023/08/09 02:01:36;;;;;;;8.38;3.80;;;;;;;;;;5051924;28;20079;-71
2023/08/09 02:04:05;;;;;;;9.57;5.28;;;;;;;;;;5053483;28;20044;-71
2023/08/09 02:06:32;;;;;;;12.18;6.10;;;;;;;;;;5053910;28;20052;-71
2023/08/09 02:08:58;;;;;;;9.30;4.90;;;;;;;;;;5075170;28;20041;-71
2023/08/09 02:11:24;;;;;;;8.27;4.15;;;;;;;;;;5050097;28;20076;-71
2023/08/09 02:13:51;;;;;;;8.45;4.25;;;;;;;;;;5047187;28;20533;-71
2023/08/09 02:16:18;;;;;;;10.80;5.60;;;;;;;;;;5054672;28;20497;-71
2023/08/09 02:18:44;;;;;;;12.25;4.95;;;;;;;;;;5054471;28;20041;-72
2023/08/09 02:21:10;;;;;;;9.35;5.20;;;;;;;;;;5054527;28;20040;-71
2023/08/09 02:23:37;;;;;;;10.32;5.70;;;;;;;;;;5034094;28;20047;-71
2023/08/09 02:26:04;;;;;;;7.28;4.40;;;;;;;;;;5053465;28;20067;-72
2023/08/09 02:28:30;;;;;;;9.65;4.50;;;;;;;;;;5054947;28;20283;-72
2023/08/09 02:30:56;;;;;;;9.20;5.30;;;;;;;;;;5054672;28;20525;-72
2023/08/09 02:33:22;;;;;;;8.57;5.55;;;;;;;;;;5055494;28;20036;-72
2023/08/09 02:35:53;;;;;;;11.32;6.07;;;;;;;;;;5055156;28;20520;-72
2023/08/09 02:38:20;;;;;;;10.55;6.05;;;;;;;;;;5055840;28;20029;-72
2023/08/09 02:40:46;;;;;;;11.45;6.20;;;;;;;;;;5038090;28;20044;-72
2023/08/09 02:43:12;;;;;;;11.32;5.82;;;;;;;;;;5054685;28;20396;-72
2023/08/09 02:45:38;;;;;;;14.38;6.82;;;;;;;;;;5054182;28;20037;-71
2023/08/09 02:48:05;;;;;;;11.23;6.18;;;;;;;;;;5054120;28;20134;-71
2023/08/09 02:50:31;;;;;;;8.40;5.40;;;;;;;;;;5054210;28;20041;-71
2023/08/09 02:52:57;;;;;;;9.82;5.28;;;;;;;;;;5055652;28;20037;-71
2023/08/09 02:55:23;;;;;;;13.20;6.22;;;;;;;;;;5054447;28;20515;-71
2023/08/09 02:57:49;;;;;;;9.10;5.60;;;;;;;;;;5053392;28;20033;-71
2023/08/09 03:00:16;;;;;;;9.90;5.65;;;;;;;;;;5054067;28;20076;-71
2023/08/09 03:02:42;;;;;;;13.15;6.45;;;;;;;;;;5053850;28;20045;-71
2023/08/09 03:05:08;;;;;;;9.73;5.95;;;;;;;;;;5054529;28;20041;-71
2023/08/09 03:07:36;;;;;;;10.63;6.10;;;;;;;;;;5053444;28;20037;-71
2023/08/09 03:10:03;;;;;;;13.00;6.68;;;;;;;;;;5054056;28;20057;-71
2023/08/09 03:12:29;;;;;;;12.20;6.90;;;;;;;;;;5053794;28;20040;-71
2023/08/09 03:14:55;;;;;;;11.32;6.30;;;;;;;;;;5054634;28;20044;-71
2023/08/09 03:17:21;;;;;;;9.15;6.03;;;;;;;;;;5036859;28;20080;-72
2023/08/09 03:19:49;;;;;;;9.20;5.03;;;;;;;;;;5037198;28;20444;-71
2023/08/09 03:22:15;;;;;;;9.75;4.97;;;;;;;;;;5053583;28;20029;-71
2023/08/09 03:24:41;;;;;;;11.45;5.88;;;;;;;;;;5087068;28;20044;-71
2023/08/09 03:27:07;;;;;;;9.98;5.57;;;;;;;;;;5047123;28;20045;-71
2023/08/09 03:29:33;;;;;;;10.13;6.28;;;;;;;;;;5049457;28;20124;-71
2023/08/09 03:31:59;;;;;;;8.20;5.10;;;;;;;;;;5052650;28;20103;-71
2023/08/09 03:34:25;;;;;;;13.27;6.90;;;;;;;;;;5036883;28;20057;-71
2023/08/09 03:36:51;;;;;;;12.23;5.85;;;;;;;;;;5053360;28;20393;-71
2023/08/09 03:39:17;;;;;;;9.85;5.57;;;;;;;;;;5052990;28;20045;-71
2023/08/09 03:41:44;;;;;;;10.23;6.03;;;;;;;;;;5052925;28;20043;-71
2023/08/09 03:44:10;;;;;;;9.65;6.18;;;;;;;;;;5053185;28;20033;-71
2023/08/09 03:46:36;;;;;;;10.88;6.93;;;;;;;;;;5053130;28;20098;-71
2023/08/09 03:49:02;;;;;;;10.32;5.88;;;;;;;;;;5054250;28;20036;-71
2023/08/09 03:51:29;;;;;;;10.07;6.85;;;;;;;;;;5052860;28;20090;-71
2023/08/09 03:53:55;;;;;;;12.77;7.00;;;;;;;;;;5052884;28;20037;-71
2023/08/09 03:56:22;;;;;;;10.38;6.82;;;;;;;;;;5054228;28;20045;-71
2023/08/09 03:58:48;;;;;;;14.18;8.10;;;;;;;;;;5035471;28;20041;-72
2023/08/09 04:01:14;;;;;;;14.68;7.57;;;;;;;;;;5050339;28;20041;-71
2023/08/09 04:03:40;;;;;;;9.48;4.75;;;;;;;;;;5049633;28;20068;-71
2023/08/09 04:06:06;;;;;;;11.38;6.47;;;;;;;;;;5043774;28;20049;-71
2023/08/09 04:08:32;;;;;;;12.52;7.00;;;;;;;;;;5048395;28;20049;-72
2023/08/09 04:11:04;;;;;;;9.20;6.30;;;;;;;;;;5048733;28;20044;-71
2023/08/09 04:13:30;;;;;;;10.07;6.88;;;;;;;;;;5039664;28;20049;-71
2023/08/09 04:15:56;;;;;;;13.48;7.50;;;;;;;;;;5044258;28;20418;-71
2023/08/09 04:18:23;;;;;;;14.20;7.53;;;;;;;;;;5068681;28;20466;-71
2023/08/09 04:20:50;;;;;;;10.07;5.57;;;;;;;;;;5050377;28;20071;-71
2023/08/09 04:23:17;;;;;;;10.15;6.45;;;;;;;;;;5053185;28;20040;-71
2023/08/09 04:25:43;;;;;;;9.27;5.88;;;;;;;;;;5052509;28;20061;-71
2023/08/09 04:28:10;;;;;;;9.38;6.35;;;;;;;;;;5051860;28;20106;-71
2023/08/09 04:30:36;;;;;;;11.57;7.70;;;;;;;;;;5052164;28;20033;-71
2023/08/09 04:33:05;;;;;;;11.75;6.72;;;;;;;;;;5053336;28;20603;-72
2023/08/09 04:35:33;;;;;;;14.30;7.88;;;;;;;;;;5038622;28;20041;-71
2023/08/09 04:37:59;;;;;;;11.15;7.35;;;;;;;;;;5052490;28;20400;-71
2023/08/09 04:40:25;;;;;;;12.10;7.32;;;;;;;;;;5053225;28;20112;-71
2023/08/09 04:42:51;;;;;;;10.77;6.82;;;;;;;;;;5052907;28;20048;-71
2023/08/09 04:45:18;;;;;;;9.63;6.65;;;;;;;;;;5052017;28;20097;-72
2023/08/09 04:47:44;;;;;;;10.02;6.60;;;;;;;;;;5052243;28;20040;-72
2023/08/09 04:50:10;;;;;;;9.38;6.28;;;;;;;;;;5053167;28;20037;-72
2023/08/09 04:52:37;;;;;;;8.10;5.68;;;;;;;;;;5051398;28;20083;-72
2023/08/09 04:55:04;;;;;;;7.47;5.00;;;;;;;;;;5035565;28;20503;-72
2023/08/09 04:57:33;;;;;;;9.80;4.75;;;;;;;;;;5051488;28;20051;-72
2023/08/09 04:59:59;;;;;;;7.32;4.82;;;;;;;;;;5035574;28;20037;-72
2023/08/09 05:02:25;;;;;;;5.97;4.20;;;;;;;;;;5052237;28;20156;-73
2023/08/09 05:04:51;;;;;;;5.68;4.20;;;;;;;;;;5051381;28;20120;-72
2023/08/09 05:07:17;;;;;;;5.18;4.28;;;;;;;;;;5035224;28;20047;-72
2023/08/09 05:09:43;;;;;;;8.77;4.43;;;;;;;;;;5051731;28;20040;-72
2023/08/09 05:12:10;;;;;;;4.78;3.50;;;;;;;;;;5051692;28;20049;-72
2023/08/09 05:14:36;;;;;;;4.85;3.75;;;;;;;;;;5052484;28;20036;-72
2023/08/09 05:17:02;;;;;;;5.88;3.55;;;;;;;;;;5052475;28;20524;-72
2023/08/09 05:19:28;;;;;;;4.55;3.10;;;;;;;;;;5051423;28;20116;-72
2023/08/09 05:21:54;;;;;;;5.10;2.92;;;;;;;;;;5051477;28;20041;-73
2023/08/09 05:24:20;;;;;;;5.65;3.78;;;;;;;;;;5051075;28;20045;-72
2023/08/09 05:26:46;;;;;;;5.47;3.50;;;;;;;;;;5034418;28;20493;-72
2023/08/09 05:29:12;;;;;;;4.90;3.08;;;;;;;;;;5051773;28;20401;-72
2023/08/09 05:31:38;;;;;;;4.03;2.90;;;;;;;;;;5051348;28;20125;-72
2023/08/09 05:34:04;;;;;;;4.47;3.42;;;;;;;;;;5051213;28;20036;-73
2023/08/09 05:36:32;;;;;;;4.03;2.88;;;;;;;;;;5050816;28;20037;-72
2023/08/09 05:38:58;;;;;;;4.22;3.13;;;;;;;;;;5051199;28;20041;-73
2023/08/09 05:41:25;;;;;;;5.20;3.05;;;;;;;;;;5051589;28;20543;-73
2023/08/09 05:43:51;;;;;;;4.53;2.70;;;;;;;;;;5051265;28;20112;-72
2023/08/09 05:46:17;;;;;;;5.25;2.80;;;;;;;;;;5051000;28;20494;-73
2023/08/09 05:48:43;;;;;;;6.40;3.00;;;;;;;;;;5051088;28;20049;-72
2023/08/09 05:51:09;;;;;;;3.58;2.50;;;;;;;;;;5051474;28;20551;-73
2023/08/09 05:53:35;;;;;;;3.60;2.78;;;;;;;;;;5034751;28;20044;-73
2023/08/09 05:56:01;;;;;;;4.55;2.78;;;;;;;;;;5050872;28;20512;-73
2023/08/09 05:58:28;;;;;;;5.30;2.20;;;;;;;;;;5052118;28;20432;-73
2023/08/09 06:00:54;;;;;;;4.18;2.40;;;;;;;;;;5051172;28;20041;-73
2023/08/09 06:03:20;;;;;;;4.60;2.45;;;;;;;;;;5051318;28;20064;-73
2023/08/09 06:05:46;;;;;;;3.70;2.40;;;;;;;;;;5050536;28;20052;-73
2023/08/09 06:08:13;;;;;;;6.60;2.60;;;;;;;;;;5051243;28;20075;-73
2023/08/09 06:10:39;;;;;;;3.63;1.90;;;;;;;;;;5034275;28;20133;-73
2023/08/09 06:13:05;;;;;;;4.32;1.92;;;;;;;;;;5051122;28;20041;-73
2023/08/09 06:15:31;;;;;;;3.97;1.88;;;;;;;;;;5052271;28;20509;-74
2023/08/09 06:17:57;;;;;;;4.10;1.83;;;;;;;;;;5051503;28;20053;-73
2023/08/09 06:20:27;;;;;;;3.97;1.60;;;;;;;;;;5050857;28;20041;-73
2023/08/09 06:22:53;;;;;;;3.17;1.40;;;;;;;;;;5050554;28;20041;-73
2023/08/09 06:25:20;;;;;;;2.50;1.42;;;;;;;;;;5028380;28;20395;-74
2023/08/09 06:27:46;;;;;;;4.30;1.52;;;;;;;;;;5044067;28;20405;-74
2023/08/09 06:30:12;;;;;;;2.75;1.50;;;;;;;;;;5050483;28;20397;-74
2023/08/09 06:32:38;;;;;;;2.72;1.42;;;;;;;;;;5050893;28;20055;-73
2023/08/09 06:35:04;;;;;;;4.25;1.40;;;;;;;;;;5050703;28;20041;-73
2023/08/09 06:37:31;;;;;;;3.03;1.30;;;;;;;;;;5051814;28;20040;-77
2023/08/09 06:39:57;;;;;;;2.75;1.35;;;;;;;;;;5052462;28;20051;-75
2023/08/09 06:42:23;;;;;;;2.97;1.40;;;;;;;;;;5053466;28;20461;-75
2023/08/09 06:44:50;;;;;;;3.55;1.50;;;;;;;;;;5052783;28;20041;-67
2023/08/09 06:47:16;;;;;;;3.45;1.70;;;;;;;;;;5055672;28;20473;-69
2023/08/09 06:49:42;;;;;;;3.05;1.30;;;;;;;;;;5054302;28;20052;-69
2023/08/09 06:52:08;;;;;;;3.15;1.70;;;;;;;;;;5053928;28;20028;-74
2023/08/09 06:54:34;;;;;;;2.80;1.40;;;;;;;;;;5037213;28;20576;-74
2023/08/09 06:57:00;;;;;;;4.53;1.60;;;;;;;;;;5054143;28;20417;-74
2023/08/09 06:59:26;;;;;;;3.25;1.40;;;;;;;;;;5050502;28;20037;-73
2023/08/09 07:01:52;;;;;;;3.75;1.40;;;;;;;;;;5042924;28;20056;-74
2023/08/09 07:04:18;;;;;;;2.80;1.30;;;;;;;;;;5053879;28;20116;-74
2023/08/09 07:06:45;;;;;;;3.75;1.20;;;;;;;;;;5044409;28;20044;-74
2023/08/09 07:09:11;;;;;;;1.80;1.08;;;;;;;;;;5040773;28;20041;-74
2023/08/09 07:11:37;;;;;;;4.53;1.10;;;;;;;;;;5036670;28;20041;-74
2023/08/09 07:14:03;;;;;;;4.13;1.10;;;;;;;;;;5050662;28;20047;-74
2023/08/09 07:16:29;;;;;;;2.20;0.90;;;;;;;;;;5052805;28;20053;-74
2023/08/09 07:18:55;;;;;;;2.70;1.10;;;;;;;;;;5054512;28;20086;-74
2023/08/09 07:21:22;;;;;;;4.32;1.08;;;;;;;;;;5040417;28;20486;-74
2023/08/09 07:23:48;;;;;;;4.22;1.27;;;;;;;;;;5054765;28;20035;-74
2023/08/09 07:26:14;;;;;;;4.10;1.02;;;;;;;;;;5052237;28;20087;-75
2023/08/09 07:28:40;;;;;;;2.67;1.08;;;;;;;;;;5052871;28;20037;-75
2023/08/09 07:31:18;;;;;;;3.53;1.00;;;;;;;;;;5053734;28;20041;-75
2023/08/09 07:33:44;;;;;;;2.55;0.98;;;;;;;;;;5053590;28;20049;-75
2023/08/09 07:36:10;;;;;;;3.05;1.00;;;;;;;;;;5052831;28;20044;-75
2023/08/09 07:38:37;;;;;;;4.38;0.90;;;;;;;;;;5036798;28;20103;-75
2023/08/09 07:41:03;;;;;;;3.25;0.90;;;;;;;;;;5053101;28;20044;-75
2023/08/09 07:43:29;;;;;;;3.47;0.90;;;;;;;;;;5053294;28;20064;-75
2023/08/09 07:45:55;;;;;;;2.58;0.88;;;;;;;;;;5052795;28;20127;-75
2023/08/09 07:48:22;;;;;;;2.47;0.80;;;;;;;;;;5054254;28;20033;-75
2023/08/09 07:50:48;;;;;;;4.55;0.95;;;;;;;;;;5036405;28;20052;-75
2023/08/09 07:53:14;;;;;;;2.50;0.90;;;;;;;;;;5053059;28;20049;-75
2023/08/09 07:55:40;;;;;;;1.63;0.90;;;;;;;;;;5052825;28;20045;-74
2023/08/09 07:58:07;;;;;;;3.08;0.90;;;;;;;;;;5053419;28;20045;-74
2023/08/09 08:00:33;;;;;;;1.40;0.70;;;;;;;;;;5054409;28;20037;-74
2023/08/09 08:02:59;;;;;;;3.40;0.88;;;;;;;;;;5036475;28;20041;-74
2023/08/09 08:05:25;;;;;;;2.13;0.80;;;;;;;;;;5053956;28;20112;-76
2023/08/09 08:07:52;;;;;;;2.40;0.90;;;;;;;;;;5053526;28;20033;-74
2023/08/09 08:10:18;;;;;;;4.03;1.02;;;;;;;;;;5053683;28;20170;-76
2023/08/09 08:12:46;;;;;;;5.57;0.90;;;;;;;;;;5036250;28;20033;-76
2023/08/09 08:15:12;;;;;;;2.97;0.90;;;;;;;;;;5035816;28;20068;-75
2023/08/09 08:17:38;;;;;;;3.28;0.95;;;;;;;;;;5052012;28;20052;-74
2023/08/09 08:20:15;;;;;;;3.17;1.10;;;;;;;;;;5047307;28;20405;-76
2023/08/09 08:22:49;;;;;;;3.03;1.02;;;;;;;;;;5045294;28;20045;-75
2023/08/09 08:25:16;;;;;;;1.45;0.75;;;;;;;;;;5053617;28;20052;-74
2023/08/09 08:27:43;;;;;;;3.35;1.00;;;;;;;;;;5053078;28;20081;-74
2023/08/09 08:30:11;;;;;;;4.28;0.90;;;;;;;;;;5052202;28;20044;-76
2023/08/09 08:32:37;;;;;;;4.28;0.90;;;;;;;;;;5052341;28;20124;-73
2023/08/09 08:35:03;;;;;;;2.90;0.73;;;;;;;;;;5053379;28;20045;-72
2023/08/09 08:37:29;;;;;;;3.03;0.70;;;;;;;;;;5052219;28;20128;-74
2023/08/09 08:39:55;;;;;;;2.30;0.70;;;;;;;;;;5035145;28;20045;-74
2023/08/09 08:42:22;;;;;;;2.38;0.70;;;;;;;;;;5052539;28;20048;-74
2023/08/09 08:44:48;;;;;;;3.90;0.80;;;;;;;;;;5052012;28;20071;-75
2023/08/09 08:47:14;;;;;;;2.17;0.80;;;;;;;;;;5051960;28;20045;-76
2023/08/09 08:49:44;;;;;;;2.78;0.93;;;;;;;;;;5035444;28;20496;-75
2023/08/09 08:52:12;;;;;;;1.48;0.68;;;;;;;;;;5051949;28;20036;-76
2023/08/09 08:54:38;;;;;;;1.67;0.70;;;;;;;;;;5035428;28;20048;-75
2023/08/09 08:57:05;;;;;;;4.13;0.70;;;;;;;;;;5034731;28;20436;-75
2023/08/09 08:59:31;;;;;;;3.25;0.70;;;;;;;;;;5034894;28;20175;-76
2023/08/09 09:01:58;;;;;;;1.70;0.80;;;;;;;;;;5051496;28;20041;-76
2023/08/09 09:04:24;;;;;;;3.42;0.90;;;;;;;;;;5037941;28;20037;-75
2023/08/09 09:06:50;;;;;;;1.85;0.73;;;;;;;;;;5051977;28;20082;-75
2023/08/09 09:09:17;;;;;;;2.47;0.80;;;;;;;;;;5051909;28;20139;-75
2023/08/09 09:11:44;;;;;;;2.05;0.60;;;;;;;;;;5051368;28;20067;-75
2023/08/09 09:14:14;;;;;;;2.85;0.90;;;;;;;;;;5051879;28;20489;-75
2023/08/09 09:16:40;;;;;;;1.30;0.60;;;;;;;;;;5051311;28;20111;-75
2023/08/09 09:19:07;;;;;;;2.67;0.70;;;;;;;;;;5016614;28;20099;-75
2023/08/09 09:21:34;;;;;;;3.75;0.82;;;;;;;;;;5051499;28;20037;-75
2023/08/09 09:24:07;;;;;;;2.17;0.80;;;;;;;;;;5051591;28;20033;-75
2023/08/09 09:26:34;;;;;;;1.90;0.70;;;;;;;;;;5051389;28;20084;-75
2023/08/09 09:29:00;;;;;;;4.68;0.80;;;;;;;;;;5051177;28;20048;-75
2023/08/09 09:31:35;;;;;;;1.95;0.90;;;;;;;;;;5051202;28;20123;-75
2023/08/09 09:34:01;;;;;;;3.70;0.80;;;;;;;;;;5051599;28;20080;-74
2023/08/09 09:36:27;;;;;;;3.72;0.80;;;;;;;;;;5051399;28;20048;-74
2023/08/09 09:38:53;;;;;;;3.08;0.70;;;;;;;;;;5051681;28;20435;-75
2023/08/09 09:41:20;;;;;;;2.25;0.80;;;;;;;;;;5050918;28;20039;-75
2023/08/09 09:43:50;;;;;;;1.85;0.80;;;;;;;;;;5052140;28;20037;-70
2023/08/09 09:46:22;;;;;;;2.75;0.80;;;;;;;;;;5052648;28;20493;-74
2023/08/09 09:48:49;;;;;;;2.50;0.75;;;;;;;;;;5051747;28;20048;-74
2023/08/09 09:51:19;;;;;;;3.00;0.80;;;;;;;;;;5050037;28;20120;-73
2023/08/09 09:53:49;;;;;;;1.90;0.77;;;;;;;;;;5048096;28;20049;-74
2023/08/09 09:56:15;;;;;;;2.10;0.90;;;;;;;;;;5067847;28;20044;-73
2023/08/09 09:58:42;;;;;;;2.65;0.82;;;;;;;;;;5047407;28;20059;-74
2023/08/09 10:01:09;;;;;;;2.83;1.00;;;;;;;;;;5047901;28;20045;-73
2023/08/09 10:03:40;;;;;;;3.25;0.90;;;;;;;;;;5050169;28;20486;-73
2023/08/09 10:06:08;;;;;;;1.70;0.80;;;;;;;;;;5047083;28;20044;-73
2023/08/09 10:08:35;;;;;;;4.88;1.48;;;;;;;;;;5050373;28;20045;-74
2023/08/09 10:11:02;;;;;;;2.67;0.80;;;;;;;;;;5047015;28;20149;-74
2023/08/09 10:13:29;;;;;;;2.55;0.90;;;;;;;;;;5050057;28;20401;-73
2023/08/09 10:15:58;;;;;;;3.53;1.05;;;;;;;;;;5052208;28;20046;-74
2023/08/09 10:18:28;;;;;;;3.47;1.00;;;;;;;;;;5069210;28;20505;-73
2023/08/09 10:20:55;;;;;;;5.07;1.13;;;;;;;;;;5050979;28;20053;-73
2023/08/09 10:23:22;;;;;;;3.28;1.15;;;;;;;;;;5053244;28;20033;-73
2023/08/09 10:25:50;;;;;;;2.20;0.82;;;;;;;;;;5054606;28;20150;-72
2023/08/09 10:28:17;;;;;;;2.42;0.93;;;;;;;;;;5055441;28;20124;-73
2023/08/09 10:30:54;;;;;;;3.05;1.13;;;;;;;;;;5056151;28;20044;-73
2023/08/09 10:33:20;;;;;;;4.13;1.10;;;;;;;;;;5054111;28;20033;-73
2023/08/09 10:35:48;;;;;;;3.38;1.20;;;;;;;;;;5054343;28;20075;-73
2023/08/09 10:38:32;;;;;;;2.83;1.00;;;;;;;;;;5054584;28;20393;-73
2023/08/09 10:40:59;;;;;;;3.75;1.13;;;;;;;;;;5054751;28;20366;-73
2023/08/09 10:43:27;;;;;;;6.57;1.30;;;;;;;;;;5054402;28;20081;-73
2023/08/09 10:45:54;;;;;;;3.72;1.13;;;;;;;;;;5053963;28;20052;-74
2023/08/09 10:48:21;;;;;;;2.95;1.13;;;;;;;;;;5054351;28;20047;-73
2023/08/09 10:50:47;;;;;;;4.85;1.30;;;;;;;;;;5054180;28;20044;-73
2023/08/09 10:53:19;;;;;;;5.22;1.30;;;;;;;;;;5037932;28;20393;-73
2023/08/09 10:55:45;;;;;;;4.15;1.50;;;;;;;;;;5053850;28;20086;-73
2023/08/09 10:58:14;;;;;;;3.22;1.10;;;;;;;;;;5037457;28;20363;-73
2023/08/09 11:00:42;;;;;;;7.00;1.55;;;;;;;;;;5054275;28;20037;-74
2023/08/09 11:03:08;;;;;;;2.60;1.25;;;;;;;;;;5054171;28;20045;-73
2023/08/09 11:05:35;;;;;;;4.30;1.20;;;;;;;;;;5053761;28;20041;-73
2023/08/09 11:08:09;;;;;;;4.80;1.50;;;;;;;;;;5055346;28;20036;-73
2023/08/09 11:10:37;;;;;;;5.00;1.40;;;;;;;;;;5054113;28;20401;-74
2023/08/09 11:13:08;;;;;;;4.90;1.30;;;;;;;;;;5054256;28;20075;-73
2023/08/09 11:15:34;;;;;;;4.40;1.30;;;;;;;;;;5053665;28;20049;-74
2023/08/09 11:18:01;;;;;;;3.80;1.40;;;;;;;;;;5053557;28;20140;-74
2023/08/09 11:20:27;;;;;;;4.70;1.27;;;;;;;;;;5037299;28;20072;-74
2023/08/09 11:22:54;;;;;;;4.53;1.30;;;;;;;;;;5053484;28;20081;-74
2023/08/09 11:25:21;;;;;;;3.00;1.20;;;;;;;;;;5053323;28;20086;-73
2023/08/09 11:27:47;;;;;;;7.68;1.30;;;;;;;;;;5051973;28;20087;-73
2023/08/09 11:30:14;;;;;;;6.22;1.40;;;;;;;;;;5037292;28;20037;-74
2023/08/09 11:32:40;;;;;;;3.17;1.13;;;;;;;;;;5070567;28;20078;-73
2023/08/09 11:35:07;;;;;;;4.00;1.33;;;;;;;;;;5036959;28;20520;-73
2023/08/09 11:37:33;;;;;;;3.90;1.40;;;;;;;;;;5054534;28;20087;-73
2023/08/09 11:39:59;;;;;;;3.00;1.40;;;;;;;;;;5053631;28;20409;-74
2023/08/09 11:42:25;;;;;;;3.42;1.50;;;;;;;;;;5053406;28;20040;-73
2023/08/09 11:44:51;;;;;;;3.15;1.17;;;;;;;;;;5053275;28;20159;-73
2023/08/09 11:47:17;;;;;;;5.75;1.42;;;;;;;;;;5053323;28;20053;-74
2023/08/09 11:49:43;;;;;;;3.30;1.17;;;;;;;;;;5052905;28;20045;-74
2023/08/09 11:52:14;;;;;;;4.53;1.38;;;;;;;;;;5054647;28;20094;-74
2023/08/09 11:54:41;;;;;;;2.53;1.20;;;;;;;;;;5053399;28;20501;-74
2023/08/09 11:57:07;;;;;;;4.88;1.40;;;;;;;;;;5052552;28;20040;-74
2023/08/09 11:59:33;;;;;;;4.63;1.50;;;;;;;;;;5054057;28;20115;-74
2023/08/09 12:01:59;;;;;;;6.65;1.50;;;;;;;;;;5051825;28;20047;-73
2023/08/09 12:04:26;;;;;;;4.97;1.50;;;;;;;;;;5052865;28;20393;-71
2023/08/09 12:06:56;;;;;;;2.28;1.10;;;;;;;;;;5052406;28;20040;-73
2023/08/09 12:09:36;;;;;;;2.47;1.15;;;;;;;;;;5052577;28;20036;-72
2023/08/09 12:22:47;;;;;;;3.67;1.70;;;;;;;;;;5049883;28;20091;-72
2023/08/09 12:25:13;;;;;;;3.78;1.40;;;;;;;;;;5052014;28;20178;-73
2023/08/09 12:27:39;;;;;;;4.72;1.65;;;;;;;;;;5069187;28;20048;-73
2023/08/09 12:30:06;;;;;;;3.85;1.20;;;;;;;;;;5052126;28;20073;-73
2023/08/09 12:32:33;;;;;;;3.90;1.35;;;;;;;;;;5052266;28;20041;-74
2023/08/09 12:34:59;;;;;;;4.50;1.23;;;;;;;;;;5051575;28;20040;-74
2023/08/09 12:37:25;;;;;;;5.13;1.10;;;;;;;;;;5034639;28;20072;-73
2023/08/09 12:39:51;;;;;;;3.55;1.20;;;;;;;;;;5053542;28;20041;-75
2023/08/09 12:42:17;;;;;;;7.55;1.30;;;;;;;;;;5035176;28;20072;-73
2023/08/09 12:44:43;;;;;;;5.05;1.50;;;;;;;;;;5051949;28;20044;-71
2023/08/09 12:47:09;;;;;;;2.85;1.00;;;;;;;;;;5052101;28;20095;-74
2023/08/09 12:49:35;;;;;;;3.97;1.30;;;;;;;;;;5034913;28;20037;-73
2023/08/09 12:52:01;;;;;;;6.55;1.40;;;;;;;;;;5051772;28;20516;-73
2023/08/09 12:54:27;;;;;;;4.57;1.10;;;;;;;;;;5051717;28;20045;-76
2023/08/09 12:56:54;;;;;;;2.78;1.10;;;;;;;;;;5051820;28;20095;-73
2023/08/09 12:59:20;;;;;;;4.45;1.10;;;;;;;;;;5053043;28;20053;-74
2023/08/09 13:01:46;;;;;;;3.75;1.40;;;;;;;;;;5052155;28;20388;-74
2023/08/09 13:04:12;;;;;;;3.58;1.00;;;;;;;;;;5050880;28;20032;-74
2023/08/09 13:06:38;;;;;;;3.80;1.10;;;;;;;;;;5051602;28;20036;-74
2023/08/09 13:09:08;;;;;;;2.65;1.00;;;;;;;;;;5051861;28;20051;-73
2023/08/09 13:11:34;;;;;;;4.20;0.98;;;;;;;;;;5034983;28;20036;-74
2023/08/09 13:14:00;;;;;;;5.32;1.00;;;;;;;;;;5052790;28;20037;-74
2023/08/09 13:16:26;;;;;;;4.78;1.05;;;;;;;;;;5052304;28;20045;-74
2023/08/09 13:18:52;;;;;;;5.22;1.33;;;;;;;;;;5051369;28;20116;-74
2023/08/09 13:21:18;;;;;;;6.03;1.42;;;;;;;;;;5051098;28;20531;-73
2023/08/09 13:23:45;;;;;;;3.97;1.00;;;;;;;;;;5034867;28;20104;-74
2023/08/09 13:26:13;;;;;;;4.97;1.08;;;;;;;;;;5051128;28;20045;-73
2023/08/09 13:28:40;;;;;;;2.40;0.90;;;;;;;;;;5050173;28;20045;-74
2023/08/09 13:31:07;;;;;;;3.05;0.98;;;;;;;;;;5051462;28;20059;-73
2023/08/09 13:33:33;;;;;;;5.88;1.00;;;;;;;;;;5051312;28;20041;-73
2023/08/09 13:36:00;;;;;;;4.38;1.10;;;;;;;;;;5052572;28;20036;-73
2023/08/09 13:38:27;;;;;;;4.13;1.23;;;;;;;;;;5063906;28;20543;-73
2023/08/09 13:40:55;;;;;;;4.93;1.20;;;;;;;;;;5051703;28;20405;-73
2023/08/09 13:43:21;;;;;;;6.78;1.20;;;;;;;;;;5052420;28;20036;-73
2023/08/09 13:45:47;;;;;;;4.63;1.45;;;;;;;;;;5044748;28;20111;-73
2023/08/09 13:48:13;;;;;;;4.10;1.20;;;;;;;;;;5053202;28;20041;-73
2023/08/09 13:50:39;;;;;;;5.05;1.30;;;;;;;;;;5047250;28;20041;-73
2023/08/09 13:53:06;;;;;;;5.65;1.40;;;;;;;;;;5045726;28;20116;-73
2023/08/09 13:55:32;;;;;;;5.78;1.65;;;;;;;;;;5055666;28;20401;-75
2023/08/09 13:57:58;;;;;;;7.00;1.98;;;;;;;;;;5052075;28;20041;-73
2023/08/09 14:00:25;;;;;;;4.68;1.30;;;;;;;;;;5057072;28;20036;-73
2023/08/09 14:02:51;;;;;;;6.03;1.40;;;;;;;;;;5051390;28;20155;-72
2023/08/09 14:05:17;;;;;;;6.50;1.27;;;;;;;;;;5059288;28;20071;-74
2023/08/09 14:07:44;;;;;;;4.25;1.30;;;;;;;;;;5051452;28;20044;-73
2023/08/09 14:10:10;;;;;;;6.20;1.83;;;;;;;;;;5032751;28;20041;-73
2023/08/09 14:12:37;;;;;;;4.13;1.52;;;;;;;;;;5054160;28;20056;-73
2023/08/09 14:15:04;;;;;;;6.25;1.50;;;;;;;;;;5047676;28;20402;-73
2023/08/09 14:17:30;;;;;;;5.07;1.00;;;;;;;;;;5047900;28;20124;-72
2023/08/09 14:19:56;;;;;;;5.63;1.38;;;;;;;;;;5044443;28;20052;-73
2023/08/09 14:22:23;;;;;;;6.93;1.08;;;;;;;;;;5047993;28;20048;-75
2023/08/09 14:24:49;;;;;;;3.45;1.20;;;;;;;;;;5044946;28;20076;-74
2023/08/09 14:27:15;;;;;;;5.43;1.20;;;;;;;;;;5055797;28;20040;-73
2023/08/09 14:29:43;;;;;;;7.78;1.20;;;;;;;;;;5054560;28;20051;-73
2023/08/09 14:32:13;;;;;;;4.15;1.30;;;;;;;;;;5037872;28;20051;-73
2023/08/09 14:34:40;;;;;;;5.03;1.10;;;;;;;;;;5054915;28;20455;-73
2023/08/09 14:37:06;;;;;;;5.28;1.45;;;;;;;;;;5055324;28;20488;-73
2023/08/09 14:39:37;;;;;;;5.57;1.30;;;;;;;;;;5054446;28;20057;-73
2023/08/09 14:42:04;;;;;;;6.97;1.33;;;;;;;;;;5054576;28;20041;-73
2023/08/09 14:44:30;;;;;;;6.30;1.27;;;;;;;;;;5054281;28;20064;-72
2023/08/09 14:46:56;;;;;;;5.63;1.27;;;;;;;;;;5046525;28;20132;-73
2023/08/09 14:49:23;;;;;;;6.78;1.30;;;;;;;;;;5051529;28;20037;-73